sensor_id;sensor_type;location;lat;lon;timestamp;temperature;humidity
19878;DHT22;10101;52.204;9.910;2022-07-23T00:00:10;14.90;99.90
19878;DHT22;10101;52.204;9.910;2022-07-23T00:02:37;14.90;99.90
19878;DHT22;10101;52.204;9.910;2022-07-23T00:05:04;14.90;99.90
19878;DHT22;10101;52.204;9.910;2022-07-23T00:07:31;15.00;99.90
19878;DHT22;10101;52.204;9.910;2022-07-23T00:09:58;15.00;99.90
19878;DHT22;10101;52.204;9.910;2022-07-23T00:12:25;15.00;99.90
19878;DHT22;10101;52.204;9.910;2022-07-23T00:14:52;15.10;99.90
19878;DHT22;10101;52.204;9.910;2022-07-23T00:17:20;15.10;99.90
19878;DHT22;10101;52.204;9.910;2022-07-23T00:19:47;15.00;99.90
19878;DHT22;10101;52.204;9.910;2022-07-23T00:22:14;15.00;99.90
19878;DHT22;10101;52.204;9.910;2022-07-23T00:24:40;15.00;99.90
19878;DHT22;10101;52.204;9.910;2022-07-23T00:27:07;15.10;99.90
19878;DHT22;10101;52.204;9.910;2022-07-23T00:29:34;15.10;99.90
19878;DHT22;10101;52.204;9.910;2022-07-23T00:32:01;15.10;99.90
19878;DHT22;10101;52.204;9.910;2022-07-23T00:34:29;15.30;99.90
19878;DHT22;10101;52.204;9.910;2022-07-23T00:36:55;15.10;99.90
19878;DHT22;10101;52.204;9.910;2022-07-23T00:39:22;15.00;99.90
19878;DHT22;10101;52.204;9.910;2022-07-23T00:41:50;15.00;99.90
19878;DHT22;10101;52.204;9.910;2022-07-23T00:44:18;15.00;99.90
19878;DHT22;10101;52.204;9.910;2022-07-23T00:46:47;15.00;99.90
19878;DHT22;10101;52.204;9.910;2022-07-23T00:49:14;15.00;99.90
19878;DHT22;10101;52.204;9.910;2022-07-23T00:51:43;14.90;99.90
19878;DHT22;10101;52.204;9.910;2022-07-23T00:54:10;14.90;99.90
19878;DHT22;10101;52.204;9.910;2022-07-23T00:56:37;14.80;99.90
19878;DHT22;10101;52.204;9.910;2022-07-23T00:59:06;14.80;99.90
19878;DHT22;10101;52.204;9.910;2022-07-23T01:01:33;14.80;99.90
19878;DHT22;10101;52.204;9.910;2022-07-23T01:04:00;14.70;99.90
19878;DHT22;10101;52.204;9.910;2022-07-23T01:06:27;14.70;99.90
19878;DHT22;10101;52.204;9.910;2022-07-23T01:08:55;14.80;99.90
19878;DHT22;10101;52.204;9.910;2022-07-23T01:11:23;14.80;99.90
19878;DHT22;10101;52.204;9.910;2022-07-23T01:13:51;14.80;99.90
19878;DHT22;10101;52.204;9.910;2022-07-23T01:16:17;14.80;99.90
19878;DHT22;10101;52.204;9.910;2022-07-23T01:18:45;14.90;99.90
19878;DHT22;10101;52.204;9.910;2022-07-23T01:21:12;14.80;99.90
19878;DHT22;10101;52.204;9.910;2022-07-23T01:23:41;14.70;99.90
19878;DHT22;10101;52.204;9.910;2022-07-23T01:26:08;14.80;99.90
19878;DHT22;10101;52.204;9.910;2022-07-23T01:28:35;14.80;99.90
19878;DHT22;10101;52.204;9.910;2022-07-23T01:31:02;14.70;99.90
19878;DHT22;10101;52.204;9.910;2022-07-23T01:33:29;14.70;99.90
19878;DHT22;10101;52.204;9.910;2022-07-23T01:35:55;14.80;99.90
19878;DHT22;10101;52.204;9.910;2022-07-23T01:38:22;14.70;99.90
19878;DHT22;10101;52.204;9.910;2022-07-23T01:40:50;14.70;99.90
19878;DHT22;10101;52.204;9.910;2022-07-23T01:43:17;14.70;99.90
19878;DHT22;10101;52.204;9.910;2022-07-23T01:45:44;14.60;99.90
19878;DHT22;10101;52.204;9.910;2022-07-23T01:48:10;14.50;99.90
19878;DHT22;10101;52.204;9.910;2022-07-23T01:50:37;14.40;99.90
19878;DHT22;10101;52.204;9.910;2022-07-23T01:53:04;14.40;99.90
19878;DHT22;10101;52.204;9.910;2022-07-23T01:55:31;14.30;99.90
19878;DHT22;10101;52.204;9.910;2022-07-23T01:57:59;14.20;99.90
19878;DHT22;10101;52.204;9.910;2022-07-23T02:00:26;14.20;99.90
19878;DHT22;10101;52.204;9.910;2022-07-23T02:02:53;14.10;99.90
19878;DHT22;10101;52.204;9.910;2022-07-23T02:05:20;13.80;99.90
19878;DHT22;10101;52.204;9.910;2022-07-23T02:07:46;13.70;99.90
19878;DHT22;10101;52.204;9.910;2022-07-23T02:10:13;13.50;99.90
19878;DHT22;10101;52.204;9.910;2022-07-23T02:12:40;13.40;99.90
19878;DHT22;10101;52.204;9.910;2022-07-23T02:15:08;13.40;99.90
19878;DHT22;10101;52.204;9.910;2022-07-23T02:17:35;13.50;99.90
19878;DHT22;10101;52.204;9.910;2022-07-23T02:20:03;13.60;99.90
19878;DHT22;10101;52.204;9.910;2022-07-23T02:22:30;13.50;99.90
19878;DHT22;10101;52.204;9.910;2022-07-23T02:24:56;13.60;99.90
19878;DHT22;10101;52.204;9.910;2022-07-23T02:27:23;13.60;99.90
19878;DHT22;10101;52.204;9.910;2022-07-23T02:29:50;13.70;99.90
19878;DHT22;10101;52.204;9.910;2022-07-23T02:32:18;13.70;99.90
19878;DHT22;10101;52.204;9.910;2022-07-23T02:34:46;13.80;99.90
19878;DHT22;10101;52.204;9.910;2022-07-23T02:37:13;13.70;99.90
19878;DHT22;10101;52.204;9.910;2022-07-23T02:39:40;13.70;99.90
19878;DHT22;10101;52.204;9.910;2022-07-23T02:42:07;13.80;99.90
19878;DHT22;10101;52.204;9.910;2022-07-23T02:44:34;13.90;99.90
19878;DHT22;10101;52.204;9.910;2022-07-23T02:47:01;13.90;99.90
19878;DHT22;10101;52.204;9.910;2022-07-23T02:49:29;14.00;99.90
19878;DHT22;10101;52.204;9.910;2022-07-23T02:51:56;14.10;99.90
19878;DHT22;10101;52.204;9.910;2022-07-23T02:54:22;14.20;99.90
19878;DHT22;10101;52.204;9.910;2022-07-23T02:56:49;14.30;99.90
19878;DHT22;10101;52.204;9.910;2022-07-23T02:59:17;14.30;99.90
19878;DHT22;10101;52.204;9.910;2022-07-23T03:01:44;14.20;99.90
19878;DHT22;10101;52.204;9.910;2022-07-23T03:04:11;14.30;99.90
19878;DHT22;10101;52.204;9.910;2022-07-23T03:06:39;14.30;99.90
19878;DHT22;10101;52.204;9.910;2022-07-23T03:09:06;14.30;99.90
19878;DHT22;10101;52.204;9.910;2022-07-23T03:11:33;14.30;99.90
19878;DHT22;10101;52.204;9.910;2022-07-23T03:14:00;14.30;99.90
19878;DHT22;10101;52.204;9.910;2022-07-23T03:16:26;14.20;99.90
19878;DHT22;10101;52.204;9.910;2022-07-23T03:18:53;14.20;99.90
19878;DHT22;10101;52.204;9.910;2022-07-23T03:21:20;14.40;99.90
19878;DHT22;10101;52.204;9.910;2022-07-23T03:23:48;14.40;99.90
19878;DHT22;10101;52.204;9.910;2022-07-23T03:26:15;14.50;99.90
19878;DHT22;10101;52.204;9.910;2022-07-23T03:28:41;14.40;99.90
19878;DHT22;10101;52.204;9.910;2022-07-23T03:31:08;14.50;99.90
19878;DHT22;10101;52.204;9.910;2022-07-23T03:33:35;14.50;99.90
19878;DHT22;10101;52.204;9.910;2022-07-23T03:36:02;14.50;99.90
19878;DHT22;10101;52.204;9.910;2022-07-23T03:38:29;14.60;99.90
19878;DHT22;10101;52.204;9.910;2022-07-23T03:40:57;14.70;99.90
19878;DHT22;10101;52.204;9.910;2022-07-23T03:43:24;14.70;99.90
19878;DHT22;10101;52.204;9.910;2022-07-23T03:45:51;14.70;99.90
19878;DHT22;10101;52.204;9.910;2022-07-23T03:48:18;14.70;99.90
19878;DHT22;10101;52.204;9.910;2022-07-23T03:50:45;14.80;99.90
19878;DHT22;10101;52.204;9.910;2022-07-23T03:53:11;14.70;99.90
19878;DHT22;10101;52.204;9.910;2022-07-23T03:55:38;14.70;99.90
19878;DHT22;10101;52.204;9.910;2022-07-23T03:58:06;14.80;99.90
19878;DHT22;10101;52.204;9.910;2022-07-23T04:00:33;14.70;99.90
19878;DHT22;10101;52.204;9.910;2022-07-23T04:03:00;14.70;99.90
19878;DHT22;10101;52.204;9.910;2022-07-23T04:05:27;14.70;99.90
19878;DHT22;10101;52.204;9.910;2022-07-23T04:07:54;14.50;99.90
19878;DHT22;10101;52.204;9.910;2022-07-23T04:10:21;14.60;99.90
19878;DHT22;10101;52.204;9.910;2022-07-23T04:12:47;14.60;99.90
19878;DHT22;10101;52.204;9.910;2022-07-23T04:15:16;14.60;99.90
19878;DHT22;10101;52.204;9.910;2022-07-23T04:17:42;14.50;99.90
19878;DHT22;10101;52.204;9.910;2022-07-23T04:20:11;14.60;99.90
19878;DHT22;10101;52.204;9.910;2022-07-23T04:22:38;14.70;99.90
19878;DHT22;10101;52.204;9.910;2022-07-23T04:25:05;14.80;99.90
19878;DHT22;10101;52.204;9.910;2022-07-23T04:27:32;14.70;99.90
19878;DHT22;10101;52.204;9.910;2022-07-23T04:29:59;14.70;99.90
19878;DHT22;10101;52.204;9.910;2022-07-23T04:32:27;14.80;99.90
19878;DHT22;10101;52.204;9.910;2022-07-23T04:34:54;14.90;99.90
19878;DHT22;10101;52.204;9.910;2022-07-23T04:37:21;14.80;99.90
19878;DHT22;10101;52.204;9.910;2022-07-23T04:39:48;14.90;99.90
19878;DHT22;10101;52.204;9.910;2022-07-23T04:42:15;14.80;99.90
19878;DHT22;10101;52.204;9.910;2022-07-23T04:44:42;14.80;99.90
19878;DHT22;10101;52.204;9.910;2022-07-23T04:47:08;14.70;99.90
19878;DHT22;10101;52.204;9.910;2022-07-23T04:49:37;14.70;99.90
19878;DHT22;10101;52.204;9.910;2022-07-23T04:52:04;14.70;99.90
19878;DHT22;10101;52.204;9.910;2022-07-23T04:54:31;14.70;99.90
19878;DHT22;10101;52.204;9.910;2022-07-23T04:56:58;14.70;99.90
19878;DHT22;10101;52.204;9.910;2022-07-23T04:59:25;14.70;99.90
19878;DHT22;10101;52.204;9.910;2022-07-23T05:01:52;14.70;99.90
19878;DHT22;10101;52.204;9.910;2022-07-23T05:04:18;14.60;99.90
19878;DHT22;10101;52.204;9.910;2022-07-23T05:06:47;14.60;99.90
19878;DHT22;10101;52.204;9.910;2022-07-23T05:09:14;14.60;99.90
19878;DHT22;10101;52.204;9.910;2022-07-23T05:11:40;14.60;99.90
19878;DHT22;10101;52.204;9.910;2022-07-23T05:14:07;14.60;99.90
19878;DHT22;10101;52.204;9.910;2022-07-23T05:16:34;14.50;99.90
19878;DHT22;10101;52.204;9.910;2022-07-23T05:19:01;14.50;99.90
19878;DHT22;10101;52.204;9.910;2022-07-23T05:21:27;14.50;99.90
19878;DHT22;10101;52.204;9.910;2022-07-23T05:23:56;14.50;99.90
19878;DHT22;10101;52.204;9.910;2022-07-23T05:26:22;14.50;99.90
19878;DHT22;10101;52.204;9.910;2022-07-23T05:28:49;14.50;99.90
19878;DHT22;10101;52.204;9.910;2022-07-23T05:31:17;14.70;99.90
19878;DHT22;10101;52.204;9.910;2022-07-23T05:33:44;14.90;99.90
19878;DHT22;10101;52.204;9.910;2022-07-23T05:36:10;15.00;99.90
19878;DHT22;10101;52.204;9.910;2022-07-23T05:38:37;15.20;99.90
19878;DHT22;10101;52.204;9.910;2022-07-23T05:41:05;15.40;99.90
19878;DHT22;10101;52.204;9.910;2022-07-23T05:43:32;15.40;99.90
19878;DHT22;10101;52.204;9.910;2022-07-23T05:45:59;15.60;99.90
19878;DHT22;10101;52.204;9.910;2022-07-23T05:48:26;15.60;99.90
19878;DHT22;10101;52.204;9.910;2022-07-23T05:50:53;15.70;99.90
19878;DHT22;10101;52.204;9.910;2022-07-23T05:53:19;15.60;99.90
19878;DHT22;10101;52.204;9.910;2022-07-23T05:55:46;15.60;99.90
19878;DHT22;10101;52.204;9.910;2022-07-23T05:58:14;15.50;99.90
19878;DHT22;10101;52.204;9.910;2022-07-23T06:00:41;15.40;99.90
19878;DHT22;10101;52.204;9.910;2022-07-23T06:03:08;15.50;99.90
19878;DHT22;10101;52.204;9.910;2022-07-23T06:05:35;15.60;99.90
19878;DHT22;10101;52.204;9.910;2022-07-23T06:08:01;15.80;99.90
19878;DHT22;10101;52.204;9.910;2022-07-23T06:10:28;15.80;99.90
19878;DHT22;10101;52.204;9.910;2022-07-23T06:12:55;15.90;99.90
19878;DHT22;10101;52.204;9.910;2022-07-23T06:15:23;16.10;99.90
19878;DHT22;10101;52.204;9.910;2022-07-23T06:17:50;16.10;99.90
19878;DHT22;10101;52.204;9.910;2022-07-23T06:20:17;16.20;99.90
19878;DHT22;10101;52.204;9.910;2022-07-23T06:22:44;16.30;99.90
19878;DHT22;10101;52.204;9.910;2022-07-23T06:25:11;16.40;99.90
19878;DHT22;10101;52.204;9.910;2022-07-23T06:27:37;16.40;99.90
19878;DHT22;10101;52.204;9.910;2022-07-23T06:30:05;16.40;99.90
19878;DHT22;10101;52.204;9.910;2022-07-23T06:32:35;16.60;99.90
19878;DHT22;10101;52.204;9.910;2022-07-23T06:35:02;16.50;99.90
19878;DHT22;10101;52.204;9.910;2022-07-23T06:37:28;16.50;99.90
19878;DHT22;10101;52.204;9.910;2022-07-23T06:39:55;16.60;99.90
19878;DHT22;10101;52.204;9.910;2022-07-23T06:42:22;16.90;99.90
19878;DHT22;10101;52.204;9.910;2022-07-23T06:44:49;16.70;99.90
19878;DHT22;10101;52.204;9.910;2022-07-23T06:47:15;16.80;99.90
19878;DHT22;10101;52.204;9.910;2022-07-23T06:49:44;16.90;99.90
19878;DHT22;10101;52.204;9.910;2022-07-23T06:52:10;16.90;99.90
19878;DHT22;10101;52.204;9.910;2022-07-23T06:54:37;17.00;99.90
19878;DHT22;10101;52.204;9.910;2022-07-23T06:57:04;17.30;99.90
19878;DHT22;10101;52.204;9.910;2022-07-23T06:59:31;17.40;99.90
19878;DHT22;10101;52.204;9.910;2022-07-23T07:01:58;17.40;99.90
19878;DHT22;10101;52.204;9.910;2022-07-23T07:04:25;17.50;99.90
19878;DHT22;10101;52.204;9.910;2022-07-23T07:06:53;17.70;99.90
19878;DHT22;10101;52.204;9.910;2022-07-23T07:09:20;17.60;99.90
19878;DHT22;10101;52.204;9.910;2022-07-23T07:11:47;17.70;99.90
19878;DHT22;10101;52.204;9.910;2022-07-23T07:14:14;17.70;99.90
19878;DHT22;10101;52.204;9.910;2022-07-23T07:16:41;17.70;99.90
19878;DHT22;10101;52.204;9.910;2022-07-23T07:19:08;17.80;99.90
19878;DHT22;10101;52.204;9.910;2022-07-23T07:21:35;17.80;99.90
19878;DHT22;10101;52.204;9.910;2022-07-23T07:24:03;18.00;99.90
19878;DHT22;10101;52.204;9.910;2022-07-23T07:26:30;17.90;99.90
19878;DHT22;10101;52.204;9.910;2022-07-23T07:28:57;18.10;99.90
19878;DHT22;10101;52.204;9.910;2022-07-23T07:31:24;18.10;99.90
19878;DHT22;10101;52.204;9.910;2022-07-23T07:33:51;18.20;99.90
19878;DHT22;10101;52.204;9.910;2022-07-23T07:36:17;18.30;99.90
19878;DHT22;10101;52.204;9.910;2022-07-23T07:38:44;18.90;99.90
19878;DHT22;10101;52.204;9.910;2022-07-23T07:41:12;19.00;99.90
19878;DHT22;10101;52.204;9.910;2022-07-23T07:43:39;19.10;99.90
19878;DHT22;10101;52.204;9.910;2022-07-23T07:46:06;18.70;99.90
19878;DHT22;10101;52.204;9.910;2022-07-23T07:48:35;19.10;99.90
19878;DHT22;10101;52.204;9.910;2022-07-23T07:51:02;18.90;99.90
19878;DHT22;10101;52.204;9.910;2022-07-23T07:53:29;18.30;99.90
19878;DHT22;10101;52.204;9.910;2022-07-23T07:55:56;18.50;99.90
19878;DHT22;10101;52.204;9.910;2022-07-23T07:58:24;18.60;99.90
19878;DHT22;10101;52.204;9.910;2022-07-23T08:00:51;18.80;99.90
19878;DHT22;10101;52.204;9.910;2022-07-23T08:03:17;18.70;99.90
19878;DHT22;10101;52.204;9.910;2022-07-23T08:05:44;18.50;99.90
19878;DHT22;10101;52.204;9.910;2022-07-23T08:08:11;18.40;99.90
19878;DHT22;10101;52.204;9.910;2022-07-23T08:10:40;18.30;99.90
19878;DHT22;10101;52.204;9.910;2022-07-23T08:13:07;18.40;99.90
19878;DHT22;10101;52.204;9.910;2022-07-23T08:15:35;18.60;99.90
19878;DHT22;10101;52.204;9.910;2022-07-23T08:18:02;19.10;99.90
19878;DHT22;10101;52.204;9.910;2022-07-23T08:20:29;19.10;1.00
19878;DHT22;10101;52.204;9.910;2022-07-23T08:22:57;19.30;1.00
19878;DHT22;10101;52.204;9.910;2022-07-23T08:25:25;18.90;99.90
19878;DHT22;10101;52.204;9.910;2022-07-23T08:27:52;18.70;99.90
19878;DHT22;10101;52.204;9.910;2022-07-23T08:30:20;18.90;17.20
19878;DHT22;10101;52.204;9.910;2022-07-23T08:32:56;18.90;1.00
19878;DHT22;10101;52.204;9.910;2022-07-23T08:35:27;19.10;99.90
19878;DHT22;10101;52.204;9.910;2022-07-23T08:37:55;19.40;99.90
19878;DHT22;10101;52.204;9.910;2022-07-23T08:40:22;19.60;1.00
19878;DHT22;10101;52.204;9.910;2022-07-23T08:42:50;19.60;1.00
19878;DHT22;10101;52.204;9.910;2022-07-23T08:45:19;19.30;96.00
19878;DHT22;10101;52.204;9.910;2022-07-23T08:47:49;19.70;1.00
19878;DHT22;10101;52.204;9.910;2022-07-23T08:50:17;19.80;1.00
19878;DHT22;10101;52.204;9.910;2022-07-23T08:52:44;19.50;99.90
19878;DHT22;10101;52.204;9.910;2022-07-23T08:55:12;19.40;11.70
19878;DHT22;10101;52.204;9.910;2022-07-23T08:57:39;19.60;1.00
19878;DHT22;10101;52.204;9.910;2022-07-23T09:00:06;19.50;1.00
19878;DHT22;10101;52.204;9.910;2022-07-23T09:02:39;19.50;99.90
19878;DHT22;10101;52.204;9.910;2022-07-23T09:05:07;19.70;99.90
19878;DHT22;10101;52.204;9.910;2022-07-23T09:07:35;19.60;74.10
19878;DHT22;10101;52.204;9.910;2022-07-23T09:10:07;19.80;1.00
19878;DHT22;10101;52.204;9.910;2022-07-23T09:12:34;20.00;1.00
19878;DHT22;10101;52.204;9.910;2022-07-23T09:15:07;19.70;1.00
19878;DHT22;10101;52.204;9.910;2022-07-23T09:17:38;19.50;99.90
19878;DHT22;10101;52.204;9.910;2022-07-23T09:20:10;19.30;99.90
19878;DHT22;10101;52.204;9.910;2022-07-23T09:22:40;19.80;99.90
19878;DHT22;10101;52.204;9.910;2022-07-23T09:25:12;20.10;99.90
19878;DHT22;10101;52.204;9.910;2022-07-23T09:27:48;20.20;99.90
19878;DHT22;10101;52.204;9.910;2022-07-23T09:30:15;20.00;16.10
19878;DHT22;10101;52.204;9.910;2022-07-23T09:32:42;20.00;1.00
19878;DHT22;10101;52.204;9.910;2022-07-23T09:35:09;20.30;1.00
19878;DHT22;10101;52.204;9.910;2022-07-23T09:37:36;20.20;1.00
19878;DHT22;10101;52.204;9.910;2022-07-23T09:40:06;20.30;1.00
19878;DHT22;10101;52.204;9.910;2022-07-23T09:42:34;20.40;1.00
19878;DHT22;10101;52.204;9.910;2022-07-23T09:45:01;20.40;1.00
19878;DHT22;10101;52.204;9.910;2022-07-23T09:47:30;20.50;99.90
19878;DHT22;10101;52.204;9.910;2022-07-23T09:49:59;20.80;99.90
19878;DHT22;10101;52.204;9.910;2022-07-23T09:52:27;21.00;99.90
19878;DHT22;10101;52.204;9.910;2022-07-23T09:54:58;20.70;99.90
19878;DHT22;10101;52.204;9.910;2022-07-23T09:57:27;21.00;99.90
19878;DHT22;10101;52.204;9.910;2022-07-23T09:59:58;21.20;99.90
19878;DHT22;10101;52.204;9.910;2022-07-23T10:02:28;20.80;93.80
19878;DHT22;10101;52.204;9.910;2022-07-23T10:04:55;20.50;1.00
19878;DHT22;10101;52.204;9.910;2022-07-23T10:07:22;20.40;1.00
19878;DHT22;10101;52.204;9.910;2022-07-23T10:09:50;20.70;1.00
19878;DHT22;10101;52.204;9.910;2022-07-23T10:12:19;20.90;1.00
19878;DHT22;10101;52.204;9.910;2022-07-23T10:15:00;21.00;1.00
19878;DHT22;10101;52.204;9.910;2022-07-23T10:17:27;21.10;1.00
19878;DHT22;10101;52.204;9.910;2022-07-23T10:19:54;20.90;1.00
19878;DHT22;10101;52.204;9.910;2022-07-23T10:22:23;20.30;1.00
19878;DHT22;10101;52.204;9.910;2022-07-23T10:24:58;20.60;1.00
19878;DHT22;10101;52.204;9.910;2022-07-23T10:27:47;21.10;1.00
19878;DHT22;10101;52.204;9.910;2022-07-23T10:30:20;21.30;1.00
19878;DHT22;10101;52.204;9.910;2022-07-23T10:32:56;21.60;1.00
19878;DHT22;10101;52.204;9.910;2022-07-23T10:35:34;21.70;1.00
19878;DHT22;10101;52.204;9.910;2022-07-23T10:38:11;21.50;1.00
19878;DHT22;10101;52.204;9.910;2022-07-23T10:40:53;21.20;1.00
19878;DHT22;10101;52.204;9.910;2022-07-23T10:43:20;21.50;1.00
19878;DHT22;10101;52.204;9.910;2022-07-23T10:45:49;21.30;99.90
19878;DHT22;10101;52.204;9.910;2022-07-23T10:48:17;21.20;99.90
19878;DHT22;10101;52.204;9.910;2022-07-23T10:51:05;21.10;99.90
19878;DHT22;10101;52.204;9.910;2022-07-23T10:53:54;21.20;99.90
19878;DHT22;10101;52.204;9.910;2022-07-23T10:56:49;21.30;99.90
19878;DHT22;10101;52.204;9.910;2022-07-23T10:59:16;21.80;99.90
19878;DHT22;10101;52.204;9.910;2022-07-23T11:01:45;21.90;99.90
19878;DHT22;10101;52.204;9.910;2022-07-23T11:04:12;21.40;99.90
19878;DHT22;10101;52.204;9.910;2022-07-23T11:07:06;21.70;99.90
19878;DHT22;10101;52.204;9.910;2022-07-23T11:09:39;21.70;99.90
19878;DHT22;10101;52.204;9.910;2022-07-23T11:12:34;22.20;99.90
19878;DHT22;10101;52.204;9.910;2022-07-23T11:15:06;22.10;99.90
19878;DHT22;10101;52.204;9.910;2022-07-23T11:17:37;21.90;99.90
19878;DHT22;10101;52.204;9.910;2022-07-23T11:20:16;21.80;99.90
19878;DHT22;10101;52.204;9.910;2022-07-23T11:22:48;21.80;99.90
19878;DHT22;10101;52.204;9.910;2022-07-23T11:25:35;21.90;99.90
19878;DHT22;10101;52.204;9.910;2022-07-23T11:28:10;22.40;99.90
19878;DHT22;10101;52.204;9.910;2022-07-23T11:30:40;22.10;99.90
19878;DHT22;10101;52.204;9.910;2022-07-23T11:33:20;22.00;52.50
19878;DHT22;10101;52.204;9.910;2022-07-23T11:35:50;22.10;19.80
19878;DHT22;10101;52.204;9.910;2022-07-23T11:38:25;21.90;9.00
19878;DHT22;10101;52.204;9.910;2022-07-23T11:40:54;21.70;1.00
19878;DHT22;10101;52.204;9.910;2022-07-23T11:43:22;22.20;1.00
19878;DHT22;10101;52.204;9.910;2022-07-23T11:45:50;22.40;1.00
19878;DHT22;10101;52.204;9.910;2022-07-23T11:48:21;22.70;44.30
19878;DHT22;10101;52.204;9.910;2022-07-23T11:50:48;22.20;1.00
19878;DHT22;10101;52.204;9.910;2022-07-23T11:53:22;22.50;1.00
19878;DHT22;10101;52.204;9.910;2022-07-23T11:55:49;22.80;1.00
19878;DHT22;10101;52.204;9.910;2022-07-23T11:58:15;23.10;1.00
19878;DHT22;10101;52.204;9.910;2022-07-23T12:00:42;23.10;1.00
19878;DHT22;10101;52.204;9.910;2022-07-23T12:03:09;22.00;1.00
19878;DHT22;10101;52.204;9.910;2022-07-23T12:05:38;22.90;1.00
19878;DHT22;10101;52.204;9.910;2022-07-23T12:08:06;22.90;1.00
19878;DHT22;10101;52.204;9.910;2022-07-23T12:10:35;22.90;1.00
19878;DHT22;10101;52.204;9.910;2022-07-23T12:13:04;23.00;1.00
19878;DHT22;10101;52.204;9.910;2022-07-23T12:15:32;23.10;1.00
19878;DHT22;10101;52.204;9.910;2022-07-23T12:18:03;23.40;1.00
19878;DHT22;10101;52.204;9.910;2022-07-23T12:20:34;23.20;1.00
19878;DHT22;10101;52.204;9.910;2022-07-23T12:23:04;23.10;1.00
19878;DHT22;10101;52.204;9.910;2022-07-23T12:25:33;23.20;1.00
19878;DHT22;10101;52.204;9.910;2022-07-23T12:28:03;23.70;1.00
19878;DHT22;10101;52.204;9.910;2022-07-23T12:30:32;23.60;1.00
19878;DHT22;10101;52.204;9.910;2022-07-23T12:33:00;23.20;1.00
19878;DHT22;10101;52.204;9.910;2022-07-23T12:35:35;23.20;1.00
19878;DHT22;10101;52.204;9.910;2022-07-23T12:38:07;23.00;1.00
19878;DHT22;10101;52.204;9.910;2022-07-23T12:40:37;22.90;1.00
19878;DHT22;10101;52.204;9.910;2022-07-23T12:43:06;23.30;1.00
19878;DHT22;10101;52.204;9.910;2022-07-23T12:45:46;23.40;1.00
19878;DHT22;10101;52.204;9.910;2022-07-23T12:48:19;23.20;1.00
19878;DHT22;10101;52.204;9.910;2022-07-23T12:50:50;23.20;1.00
19878;DHT22;10101;52.204;9.910;2022-07-23T12:53:21;23.20;1.00
19878;DHT22;10101;52.204;9.910;2022-07-23T12:55:48;23.70;1.00
19878;DHT22;10101;52.204;9.910;2022-07-23T12:58:17;23.80;1.00
19878;DHT22;10101;52.204;9.910;2022-07-23T13:00:59;23.80;1.00
19878;DHT22;10101;52.204;9.910;2022-07-23T13:03:35;24.20;1.00
19878;DHT22;10101;52.204;9.910;2022-07-23T13:06:04;24.00;99.90
19878;DHT22;10101;52.204;9.910;2022-07-23T13:08:33;24.00;99.90
19878;DHT22;10101;52.204;9.910;2022-07-23T13:11:01;23.80;99.90
19878;DHT22;10101;52.204;9.910;2022-07-23T13:13:28;23.90;99.90
19878;DHT22;10101;52.204;9.910;2022-07-23T13:15:56;24.20;99.90
19878;DHT22;10101;52.204;9.910;2022-07-23T13:18:24;24.00;99.90
19878;DHT22;10101;52.204;9.910;2022-07-23T13:20:51;24.40;99.90
19878;DHT22;10101;52.204;9.910;2022-07-23T13:23:18;24.40;99.90
19878;DHT22;10101;52.204;9.910;2022-07-23T13:25:47;24.60;99.90
19878;DHT22;10101;52.204;9.910;2022-07-23T13:28:15;24.30;99.90
19878;DHT22;10101;52.204;9.910;2022-07-23T13:30:42;23.70;99.90
19878;DHT22;10101;52.204;9.910;2022-07-23T13:33:09;23.80;99.90
19878;DHT22;10101;52.204;9.910;2022-07-23T13:35:37;24.20;99.90
19878;DHT22;10101;52.204;9.910;2022-07-23T13:38:04;24.40;99.90
19878;DHT22;10101;52.204;9.910;2022-07-23T13:40:33;24.60;99.90
19878;DHT22;10101;52.204;9.910;2022-07-23T13:43:02;24.60;99.90
19878;DHT22;10101;52.204;9.910;2022-07-23T13:45:29;24.60;99.90
19878;DHT22;10101;52.204;9.910;2022-07-23T13:47:56;25.30;99.90
19878;DHT22;10101;52.204;9.910;2022-07-23T13:50:23;25.40;99.90
19878;DHT22;10101;52.204;9.910;2022-07-23T13:52:50;25.10;82.10
19878;DHT22;10101;52.204;9.910;2022-07-23T13:55:17;25.40;72.70
19878;DHT22;10101;52.204;9.910;2022-07-23T13:57:44;25.20;35.40
19878;DHT22;10101;52.204;9.910;2022-07-23T14:00:13;25.50;15.10
19878;DHT22;10101;52.204;9.910;2022-07-23T14:02:40;25.60;1.00
19878;DHT22;10101;52.204;9.910;2022-07-23T14:05:09;25.30;1.00
19878;DHT22;10101;52.204;9.910;2022-07-23T14:07:37;25.30;1.00
19878;DHT22;10101;52.204;9.910;2022-07-23T14:10:05;25.40;1.00
19878;DHT22;10101;52.204;9.910;2022-07-23T14:12:32;25.90;1.00
19878;DHT22;10101;52.204;9.910;2022-07-23T14:14:59;26.00;1.00
19878;DHT22;10101;52.204;9.910;2022-07-23T14:17:27;26.20;1.00
19878;DHT22;10101;52.204;9.910;2022-07-23T14:19:55;26.00;1.00
19878;DHT22;10101;52.204;9.910;2022-07-23T14:22:21;25.50;1.00
19878;DHT22;10101;52.204;9.910;2022-07-23T14:24:48;25.90;1.00
19878;DHT22;10101;52.204;9.910;2022-07-23T14:27:15;26.00;1.00
19878;DHT22;10101;52.204;9.910;2022-07-23T14:29:43;25.90;1.00
19878;DHT22;10101;52.204;9.910;2022-07-23T14:32:09;26.40;1.00
19878;DHT22;10101;52.204;9.910;2022-07-23T14:34:38;26.70;1.00
19878;DHT22;10101;52.204;9.910;2022-07-23T14:37:04;26.70;1.00
19878;DHT22;10101;52.204;9.910;2022-07-23T14:39:31;26.60;1.00
19878;DHT22;10101;52.204;9.910;2022-07-23T14:41:58;26.60;1.00
19878;DHT22;10101;52.204;9.910;2022-07-23T14:44:25;27.00;1.00
19878;DHT22;10101;52.204;9.910;2022-07-23T14:46:52;26.80;1.00
19878;DHT22;10101;52.204;9.910;2022-07-23T14:49:19;27.10;1.00
19878;DHT22;10101;52.204;9.910;2022-07-23T14:51:48;27.10;1.00
19878;DHT22;10101;52.204;9.910;2022-07-23T14:54:14;26.60;1.00
19878;DHT22;10101;52.204;9.910;2022-07-23T14:56:42;26.40;1.00
19878;DHT22;10101;52.204;9.910;2022-07-23T14:59:08;26.50;1.00
19878;DHT22;10101;52.204;9.910;2022-07-23T15:01:35;27.50;1.00
19878;DHT22;10101;52.204;9.910;2022-07-23T15:04:03;27.80;1.00
19878;DHT22;10101;52.204;9.910;2022-07-23T15:06:30;27.30;1.00
19878;DHT22;10101;52.204;9.910;2022-07-23T15:08:58;27.40;1.00
19878;DHT22;10101;52.204;9.910;2022-07-23T15:11:26;27.90;1.00
19878;DHT22;10101;52.204;9.910;2022-07-23T15:13:54;28.30;1.00
19878;DHT22;10101;52.204;9.910;2022-07-23T15:16:21;28.00;99.90
19878;DHT22;10101;52.204;9.910;2022-07-23T15:18:48;27.70;99.90
19878;DHT22;10101;52.204;9.910;2022-07-23T15:21:15;28.20;99.90
19878;DHT22;10101;52.204;9.910;2022-07-23T15:23:41;28.60;99.90
19878;DHT22;10101;52.204;9.910;2022-07-23T15:26:09;28.60;99.90
19878;DHT22;10101;52.204;9.910;2022-07-23T15:28:36;27.90;99.90
19878;DHT22;10101;52.204;9.910;2022-07-23T15:31:03;28.30;99.90
19878;DHT22;10101;52.204;9.910;2022-07-23T15:33:30;28.40;99.90
19878;DHT22;10101;52.204;9.910;2022-07-23T15:35:57;28.70;99.90
19878;DHT22;10101;52.204;9.910;2022-07-23T15:38:25;27.70;99.90
19878;DHT22;10101;52.204;9.910;2022-07-23T15:40:52;28.30;99.90